createdAt,value
2022-09-30T00:01:28.099Z,100508.44
2022-09-30T00:04:25.920Z,100513.38
2022-09-30T00:07:22.437Z,100512.16
2022-09-30T00:10:19.541Z,100513.16
2022-09-30T00:13:16.585Z,100509.88
2022-09-30T00:16:14.334Z,100507.91
2022-09-30T00:19:11.988Z,100499.63
2022-09-30T00:22:09.790Z,100507.25
2022-09-30T00:25:07.282Z,100511.69
2022-09-30T00:28:07.973Z,100507.97
2022-09-30T00:31:07.940Z,100517.38
2022-09-30T00:34:08.474Z,100527.44
2022-09-30T00:37:05.942Z,100535.75
2022-09-30T00:40:02.505Z,100531.16
2022-09-30T00:43:00.579Z,100523.28
2022-09-30T00:45:58.279Z,100514.44
2022-09-30T00:48:57.054Z,100512.66
2022-09-30T00:51:55.480Z,100524.44
2022-09-30T00:54:53.142Z,100519.72
2022-09-30T00:57:50.690Z,100520.00
2022-09-30T01:00:48.388Z,100532.81
2022-09-30T01:03:59.098Z,100525.25
2022-09-30T01:07:01.746Z,100519.81
2022-09-30T01:09:58.821Z,100509.72
2022-09-30T01:12:56.435Z,100521.88
2022-09-30T01:15:58.469Z,100510.53
2022-09-30T01:19:20.030Z,100507.03
2022-09-30T01:22:41.925Z,100508.47
2022-09-30T01:26:01.593Z,100517.19
2022-09-30T01:29:17.093Z,100514.19
2022-09-30T01:32:52.149Z,100512.78
2022-09-30T01:36:11.201Z,100524.09
2022-09-30T01:39:20.706Z,100523.69
2022-09-30T01:42:38.070Z,100521.06
2022-09-30T01:45:52.154Z,100524.34
2022-09-30T01:48:57.832Z,100533.94
2022-09-30T01:52:17.474Z,100542.03
2022-09-30T01:55:37.957Z,100536.84
2022-09-30T01:58:53.204Z,100531.13
2022-09-30T02:01:57.092Z,100528.13
2022-09-30T02:05:19.755Z,100524.78
2022-09-30T02:08:46.334Z,100530.44
2022-09-30T02:11:43.738Z,100526.56
2022-09-30T02:14:45.011Z,100537.44
2022-09-30T02:18:17.173Z,100533.03
2022-09-30T02:21:17.648Z,100536.22
2022-09-30T02:24:15.354Z,100530.88
2022-09-30T02:27:20.650Z,100547.13
2022-09-30T02:30:17.458Z,100541.91
2022-09-30T02:33:20.291Z,100533.44
2022-09-30T02:36:30.678Z,100534.31
2022-09-30T02:39:40.948Z,100543.78
2022-09-30T02:42:37.678Z,100549.88
2022-09-30T02:45:49.385Z,100539.13
2022-09-30T02:48:52.719Z,100541.44
2022-09-30T02:51:56.377Z,100541.59
2022-09-30T02:55:10.426Z,100539.31
2022-09-30T02:58:15.042Z,100542.78
2022-09-30T03:01:13.674Z,100538.16
2022-09-30T03:04:13.089Z,100539.53
2022-09-30T03:07:10.378Z,100550.13
2022-09-30T03:10:17.388Z,100553.31
2022-09-30T03:13:23.816Z,100550.13
2022-09-30T03:16:47.590Z,100546.16
2022-09-30T03:20:03.683Z,100551.28
2022-09-30T03:23:22.215Z,100550.34
2022-09-30T03:26:53.705Z,100550.09
2022-09-30T03:30:03.193Z,100560.81
2022-09-30T03:33:08.596Z,100560.25
2022-09-30T03:36:28.058Z,100571.91
2022-09-30T03:39:45.718Z,100570.44
2022-09-30T03:42:51.548Z,100571.63
2022-09-30T03:45:55.752Z,100569.41
2022-09-30T03:48:56.912Z,100585.16
2022-09-30T03:51:54.350Z,100592.56
2022-09-30T03:54:56.523Z,100588.22
2022-09-30T03:57:54.429Z,100581.78
2022-09-30T04:00:53.151Z,100585.94
2022-09-30T04:03:53.595Z,100589.00
2022-09-30T04:06:51.067Z,100592.03
2022-09-30T04:09:47.675Z,100595.72
2022-09-30T04:12:44.532Z,100601.59
2022-09-30T04:15:42.098Z,100603.25
2022-09-30T04:18:39.898Z,100607.47
2022-09-30T04:21:36.758Z,100615.53
2022-09-30T04:24:33.650Z,100621.63
2022-09-30T04:27:30.749Z,100618.78
2022-09-30T04:30:32.692Z,100620.22
2022-09-30T04:33:30.669Z,100624.84
2022-09-30T04:36:27.850Z,100626.81
2022-09-30T04:39:24.894Z,100633.09
2022-09-30T04:42:21.698Z,100622.69
2022-09-30T04:45:20.370Z,100630.88
2022-09-30T04:48:17.785Z,100638.50
2022-09-30T04:51:15.744Z,100631.84
2022-09-30T04:54:13.449Z,100646.44
2022-09-30T04:57:10.536Z,100640.69
2022-09-30T05:00:09.420Z,100636.94
2022-09-30T05:03:06.901Z,100639.00
2022-09-30T05:06:04.364Z,100642.44
2022-09-30T05:09:01.574Z,100641.94
2022-09-30T05:11:58.893Z,100645.25
2022-09-30T05:14:55.522Z,100637.44
2022-09-30T05:17:53.273Z,100648.09
2022-09-30T05:20:51.374Z,100637.44
2022-09-30T05:23:49.259Z,100647.91
2022-09-30T05:26:46.861Z,100647.66
2022-09-30T05:29:44.041Z,100656.44
2022-09-30T05:32:40.855Z,100664.69
2022-09-30T05:35:38.820Z,100660.53
2022-09-30T05:38:36.162Z,100664.59
2022-09-30T05:41:34.038Z,100672.06
2022-09-30T05:44:31.004Z,100671.91
2022-09-30T05:47:27.747Z,100659.84
2022-09-30T05:50:24.857Z,100666.50
2022-09-30T05:53:21.760Z,100668.47
2022-09-30T05:56:18.954Z,100667.13
2022-09-30T05:59:15.887Z,100681.59
2022-09-30T06:02:14.162Z,100678.34
2022-09-30T06:05:12.010Z,100681.16
2022-09-30T06:08:10.405Z,100690.53
2022-09-30T06:11:11.888Z,100698.88
2022-09-30T06:14:09.314Z,100698.97
2022-09-30T06:17:06.845Z,100699.72
2022-09-30T06:20:05.292Z,100711.97
2022-09-30T06:23:03.285Z,100712.47
2022-09-30T06:26:01.351Z,100699.66
2022-09-30T06:28:59.109Z,100713.75
2022-09-30T06:31:55.977Z,100710.56
2022-09-30T06:34:55.691Z,100710.69
2022-09-30T06:37:52.774Z,100706.00
2022-09-30T06:40:50.482Z,100705.88
2022-09-30T06:43:52.387Z,100716.69
2022-09-30T06:46:55.770Z,100721.41
2022-09-30T06:49:53.309Z,100726.09
2022-09-30T06:52:51.672Z,100730.31
2022-09-30T06:55:48.927Z,100731.84
2022-09-30T06:58:46.223Z,100723.41
2022-09-30T07:01:44.383Z,100738.06
2022-09-30T07:04:41.839Z,100738.44
2022-09-30T07:07:38.859Z,100744.34
2022-09-30T07:10:35.949Z,100744.44
2022-09-30T07:13:33.391Z,100752.38
2022-09-30T07:16:32.137Z,100755.88
2022-09-30T07:19:28.648Z,100749.91
2022-09-30T07:22:32.178Z,100749.28
2022-09-30T07:25:28.733Z,100748.88
2022-09-30T07:28:28.634Z,100749.59
2022-09-30T07:31:35.254Z,100752.16
2022-09-30T07:34:33.207Z,100750.47
2022-09-30T07:37:32.726Z,100753.69
2022-09-30T07:40:31.456Z,100746.13
2022-09-30T07:43:39.034Z,100747.56
2022-09-30T07:46:39.100Z,100750.22
2022-09-30T07:49:36.983Z,100745.44
2022-09-30T07:52:34.021Z,100749.69
2022-09-30T07:55:30.915Z,100752.41
2022-09-30T07:58:27.989Z,100746.22
2022-09-30T08:01:25.371Z,100746.63
2022-09-30T08:04:23.617Z,100741.09
2022-09-30T08:07:21.097Z,100745.63
2022-09-30T08:13:20.981Z,100754.88
2022-09-30T08:16:18.466Z,100735.59
2022-09-30T08:19:20.458Z,100742.72
2022-09-30T08:22:17.871Z,100752.03
2022-09-30T08:25:14.829Z,100746.91
2022-09-30T08:28:13.329Z,100761.47
2022-09-30T08:31:12.456Z,100754.84
2022-09-30T08:34:09.769Z,100762.25
2022-09-30T08:37:09.565Z,100764.34
2022-09-30T08:40:06.987Z,100786.41
2022-09-30T08:43:22.529Z,100775.06
2022-09-30T08:46:28.432Z,100771.22
2022-09-30T08:50:04.162Z,100775.56
2022-09-30T08:53:08.464Z,100788.22
2022-09-30T08:56:06.062Z,100773.53
2022-09-30T08:59:15.220Z,100769.94
2022-09-30T09:02:17.903Z,100760.22
2022-09-30T09:05:30.793Z,100773.50
2022-09-30T09:08:53.034Z,100779.00
2022-09-30T09:12:00.540Z,100783.41
2022-09-30T09:15:22.902Z,100768.75
2022-09-30T09:18:38.655Z,100774.13
2022-09-30T09:21:52.386Z,100782.22
2022-09-30T09:24:50.837Z,100775.56
2022-09-30T09:27:56.483Z,100783.81
2022-09-30T09:30:57.408Z,100780.69
2022-09-30T09:33:56.957Z,100793.53
2022-09-30T09:37:18.240Z,100782.19
2022-09-30T09:40:59.335Z,100786.84
2022-09-30T09:44:14.257Z,100787.97
2022-09-30T09:47:17.158Z,100781.34
2022-09-30T09:50:18.021Z,100776.19
2022-09-30T09:53:21.775Z,100775.47
2022-09-30T09:56:20.881Z,100783.41
2022-09-30T09:59:20.133Z,100788.44
2022-09-30T10:02:31.604Z,100797.13
2022-09-30T10:05:31.647Z,100773.25
2022-09-30T10:08:31.216Z,100783.22
2022-09-30T10:11:31.038Z,100777.66
2022-09-30T10:14:28.226Z,100780.38
2022-09-30T10:17:33.107Z,100778.09
2022-09-30T10:20:32.216Z,100783.03
2022-09-30T10:23:32.721Z,100784.56
2022-09-30T10:26:30.119Z,100801.91
2022-09-30T10:29:28.316Z,100779.75
2022-09-30T10:32:28.265Z,100770.72
2022-09-30T10:35:24.910Z,100766.03
2022-09-30T10:38:26.633Z,100773.50
2022-09-30T10:41:26.083Z,100788.94
2022-09-30T10:44:23.424Z,100777.50
2022-09-30T10:47:24.833Z,100777.50
2022-09-30T10:50:25.112Z,100770.38
2022-09-30T10:53:24.483Z,100769.75
2022-09-30T10:56:38.452Z,100778.84
2022-09-30T10:59:37.746Z,100763.22
2022-09-30T11:02:48.266Z,100753.88
2022-09-30T11:05:49.008Z,100769.19
2022-09-30T11:09:16.785Z,100773.44
2022-09-30T11:12:30.895Z,100760.66
2022-09-30T11:15:36.704Z,100767.25
2022-09-30T11:18:58.133Z,100791.22
2022-09-30T11:22:12.846Z,100776.81
2022-09-30T11:25:19.266Z,100772.66
2022-09-30T11:28:37.917Z,100764.25
2022-09-30T11:31:58.375Z,100759.28
2022-09-30T11:35:20.943Z,100764.03
2022-09-30T11:38:24.050Z,100767.38
2022-09-30T11:41:33.251Z,100760.34
2022-09-30T11:44:36.851Z,100763.28
2022-09-30T11:48:15.394Z,100750.00
2022-09-30T11:51:42.598Z,100744.47
2022-09-30T11:54:55.109Z,100755.06
2022-09-30T11:58:12.072Z,100742.63
2022-09-30T12:01:30.581Z,100744.63
2022-09-30T12:04:31.611Z,100745.06
2022-09-30T12:07:51.208Z,100738.06
2022-09-30T12:11:12.303Z,100746.25
2022-09-30T12:14:19.705Z,100746.00
2022-09-30T12:17:27.375Z,100740.97
2022-09-30T12:20:36.408Z,100744.59
2022-09-30T12:23:44.034Z,100743.06
2022-09-30T12:26:41.315Z,100729.16
2022-09-30T12:29:58.750Z,100729.97
2022-09-30T12:33:31.835Z,100720.16
2022-09-30T12:36:53.637Z,100728.53
2022-09-30T12:40:28.807Z,100724.13
2022-09-30T12:43:43.788Z,100730.66
2022-09-30T12:46:49.896Z,100721.66
2022-09-30T12:49:46.999Z,100716.34
2022-09-30T12:52:44.518Z,100713.50
2022-09-30T12:55:41.682Z,100699.56
2022-09-30T12:58:44.350Z,100700.41
2022-09-30T13:01:42.179Z,100695.91
2022-09-30T13:04:42.916Z,100704.50
2022-09-30T13:07:40.903Z,100688.19
2022-09-30T13:10:38.047Z,100702.44
2022-09-30T13:14:12.106Z,100691.50
2022-09-30T13:17:08.716Z,100693.19
2022-09-30T13:20:45.784Z,100685.47
2022-09-30T13:23:44.086Z,100690.34
2022-09-30T13:26:44.854Z,100680.97
2022-09-30T13:29:47.752Z,100685.50
2022-09-30T13:33:04.679Z,100684.69
2022-09-30T13:36:07.722Z,100678.94
2022-09-30T13:39:17.153Z,100677.72
2022-09-30T13:42:17.788Z,100672.00
2022-09-30T13:45:31.379Z,100676.47
2022-09-30T13:48:33.700Z,100671.13
2022-09-30T13:51:32.897Z,100668.72
2022-09-30T13:54:34.076Z,100668.34
2022-09-30T13:57:49.116Z,100655.25
2022-09-30T14:00:49.162Z,100667.22
2022-09-30T14:04:05.961Z,100670.97
2022-09-30T14:07:45.190Z,100673.13
2022-09-30T14:11:03.586Z,100671.56
2022-09-30T14:14:08.525Z,100672.78
2022-09-30T14:17:12.498Z,100676.47
2022-09-30T14:20:29.874Z,100677.31
2022-09-30T14:23:27.173Z,100659.75
2022-09-30T14:26:30.078Z,100662.59
2022-09-30T14:29:47.825Z,100665.03
2022-09-30T14:33:07.599Z,100654.00
2022-09-30T14:36:11.094Z,100656.06
2022-09-30T14:39:14.080Z,100660.16
2022-09-30T14:42:11.496Z,100656.06
2022-09-30T14:45:08.679Z,100647.06
2022-09-30T14:48:07.935Z,100649.06
2022-09-30T14:51:07.777Z,100647.84
2022-09-30T14:54:06.357Z,100645.03
2022-09-30T14:57:04.202Z,100645.00
2022-09-30T15:00:20.418Z,100650.72
2022-09-30T15:03:17.376Z,100646.91
2022-09-30T15:06:19.067Z,100650.16
2022-09-30T15:09:29.885Z,100650.16
2022-09-30T15:12:27.119Z,100649.88
2022-09-30T15:15:24.166Z,100653.19
2022-09-30T15:18:38.062Z,100647.47
2022-09-30T15:21:35.493Z,100642.56
2022-09-30T15:24:33.109Z,100640.09
2022-09-30T15:27:31.227Z,100644.25
2022-09-30T15:30:29.403Z,100643.03
2022-09-30T15:33:31.969Z,100640.97
2022-09-30T15:36:29.716Z,100649.97
2022-09-30T15:39:51.612Z,100648.75
2022-09-30T15:43:03.333Z,100629.94
2022-09-30T15:46:27.017Z,100626.97
2022-09-30T15:49:40.933Z,100645.00
2022-09-30T15:52:42.480Z,100640.91
2022-09-30T15:55:43.959Z,100645.78
2022-09-30T15:58:42.338Z,100643.34
2022-09-30T16:01:49.766Z,100647.00
2022-09-30T16:04:51.933Z,100649.47
2022-09-30T16:07:49.159Z,100651.50
2022-09-30T16:10:49.473Z,100641.22
2022-09-30T16:13:47.635Z,100639.06
2022-09-30T16:16:51.171Z,100644.81
2022-09-30T16:20:13.935Z,100649.00
2022-09-30T16:23:26.930Z,100641.50
2022-09-30T16:26:28.812Z,100653.81
2022-09-30T16:29:26.865Z,100650.56
2022-09-30T16:32:24.504Z,100655.44
2022-09-30T16:35:22.963Z,100644.75
2022-09-30T16:38:20.310Z,100653.75
2022-09-30T16:41:17.388Z,100660.34
2022-09-30T16:44:14.292Z,100651.13
2022-09-30T16:47:16.241Z,100647.38
2022-09-30T16:50:24.954Z,100663.47
2022-09-30T16:53:23.198Z,100653.25
2022-09-30T16:56:24.029Z,100638.31
2022-09-30T16:59:21.190Z,100654.22
2022-09-30T17:02:18.326Z,100644.06
2022-09-30T17:05:20.073Z,100636.19
2022-09-30T17:08:17.636Z,100644.53
2022-09-30T17:11:14.850Z,100646.97
2022-09-30T17:14:12.226Z,100651.19
2022-09-30T17:17:13.433Z,100641.00
2022-09-30T17:20:11.754Z,100639.63
2022-09-30T17:23:09.251Z,100641.59
2022-09-30T17:26:06.718Z,100640.22
2022-09-30T17:29:21.107Z,100649.72
2022-09-30T17:32:20.332Z,100639.09
2022-09-30T17:35:17.768Z,100644.69
2022-09-30T17:38:15.689Z,100642.94
2022-09-30T17:41:31.626Z,100647.72
2022-09-30T17:44:30.064Z,100646.41
2022-09-30T17:47:27.390Z,100651.66
2022-09-30T17:50:24.411Z,100650.88
2022-09-30T17:53:21.713Z,100647.00
2022-09-30T17:56:20.325Z,100644.09
2022-09-30T17:59:19.870Z,100642.38
2022-09-30T18:02:18.196Z,100624.41
2022-09-30T18:05:15.674Z,100628.56
2022-09-30T18:08:13.245Z,100623.94
2022-09-30T18:11:11.633Z,100627.84
2022-09-30T18:14:10.177Z,100630.38
2022-09-30T18:17:07.430Z,100623.44
2022-09-30T18:20:04.812Z,100620.94
2022-09-30T18:23:02.690Z,100623.25
2022-09-30T18:26:00.113Z,100629.81
2022-09-30T18:28:58.294Z,100630.06
2022-09-30T18:31:56.634Z,100636.13
2022-09-30T18:34:53.402Z,100618.16
2022-09-30T18:37:51.750Z,100633.84
2022-09-30T18:40:50.055Z,100628.44
2022-09-30T18:43:50.154Z,100628.13
2022-09-30T18:46:47.462Z,100635.47
2022-09-30T18:49:44.696Z,100624.06
2022-09-30T18:52:41.887Z,100626.91
2022-09-30T18:55:39.355Z,100624.00
2022-09-30T18:58:37.399Z,100621.03
2022-09-30T19:01:36.058Z,100613.75
2022-09-30T19:04:33.809Z,100614.06
2022-09-30T19:07:30.560Z,100611.16
2022-09-30T19:10:27.624Z,100609.84
2022-09-30T19:13:27.954Z,100606.56
2022-09-30T19:16:26.250Z,100609.31
2022-09-30T19:19:23.296Z,100609.63
2022-09-30T19:22:24.901Z,100602.91
2022-09-30T19:25:25.127Z,100589.44
2022-09-30T19:28:22.773Z,100596.19
2022-09-30T19:31:21.109Z,100589.81
2022-09-30T19:34:29.955Z,100574.69
2022-09-30T19:37:28.599Z,100578.50
2022-09-30T19:40:25.416Z,100579.38
2022-09-30T19:43:22.893Z,100573.94
2022-09-30T19:46:21.778Z,100575.53
2022-09-30T19:49:18.721Z,100571.19
2022-09-30T19:52:21.993Z,100572.69
2022-09-30T19:55:19.429Z,100574.69
2022-09-30T19:58:16.684Z,100573.88
2022-09-30T20:01:14.357Z,100565.03
2022-09-30T20:04:12.872Z,100565.03
2022-09-30T20:07:10.614Z,100558.09
2022-09-30T20:10:07.884Z,100553.44
2022-09-30T20:13:05.955Z,100554.22
2022-09-30T20:16:08.961Z,100542.59
2022-09-30T20:19:06.829Z,100542.97
2022-09-30T20:22:05.406Z,100539.00
2022-09-30T20:25:02.853Z,100530.66
2022-09-30T20:27:59.658Z,100523.94
2022-09-30T20:30:56.501Z,100527.38
2022-09-30T20:33:57.180Z,100532.59
2022-09-30T20:36:54.676Z,100537.50
2022-09-30T20:39:51.316Z,100534.63
2022-09-30T20:42:48.908Z,100530.81
2022-09-30T20:45:52.909Z,100524.75
2022-09-30T20:48:51.180Z,100528.66
2022-09-30T20:51:48.641Z,100524.41
2022-09-30T20:54:45.660Z,100520.97
2022-09-30T20:57:44.784Z,100520.31
2022-09-30T21:00:42.058Z,100507.28
2022-09-30T21:03:40.446Z,100504.16
2022-09-30T21:06:37.944Z,100504.16
2022-09-30T21:09:35.647Z,100501.84
2022-09-30T21:12:33.151Z,100506.09
2022-09-30T21:15:31.297Z,100494.78
2022-09-30T21:18:29.229Z,100492.91
2022-09-30T21:21:26.976Z,100490.31
2022-09-30T21:24:26.117Z,100495.81
2022-09-30T21:27:23.775Z,100494.47
2022-09-30T21:30:21.556Z,100485.09
2022-09-30T21:33:19.618Z,100493.19
2022-09-30T21:36:17.114Z,100483.22
2022-09-30T21:39:14.657Z,100481.00
2022-09-30T21:42:12.992Z,100476.94
2022-09-30T21:45:10.832Z,100467.41
2022-09-30T21:48:10.246Z,100474.03
2022-09-30T21:51:07.794Z,100472.16
2022-09-30T21:54:04.615Z,100462.13
2022-09-30T21:57:01.659Z,100469.00
2022-09-30T21:59:59.088Z,100473.97
2022-09-30T22:02:57.743Z,100472.44
2022-09-30T22:05:55.546Z,100468.97
2022-09-30T22:08:52.815Z,100461.97
2022-09-30T22:11:49.661Z,100465.69
2022-09-30T22:14:46.398Z,100453.09
2022-09-30T22:17:43.626Z,100455.41
2022-09-30T22:20:40.769Z,100446.56
2022-09-30T22:23:37.907Z,100449.16
2022-09-30T22:26:35.093Z,100441.31
2022-09-30T22:29:32.977Z,100440.06
2022-09-30T22:32:29.945Z,100444.16
2022-09-30T22:35:45.100Z,100433.19
2022-09-30T22:38:43.489Z,100428.44
2022-09-30T22:41:40.617Z,100432.03
2022-09-30T22:44:37.936Z,100417.22
2022-09-30T22:47:36.170Z,100419.44
2022-09-30T22:50:35.580Z,100415.03
2022-09-30T22:53:32.640Z,100418.13
2022-09-30T22:56:31.169Z,100422.56
2022-09-30T22:59:29.006Z,100412.66
2022-09-30T23:02:26.472Z,100406.22
2022-09-30T23:05:23.716Z,100400.56
2022-09-30T23:08:22.166Z,100392.72
2022-09-30T23:11:21.521Z,100396.91
2022-09-30T23:14:18.686Z,100389.69
2022-09-30T23:17:15.382Z,100378.69
2022-09-30T23:20:13.603Z,100366.59
2022-09-30T23:23:11.269Z,100368.66
2022-09-30T23:26:19.390Z,100362.81
2022-09-30T23:29:16.725Z,100362.00
2022-09-30T23:32:14.131Z,100355.94
2022-09-30T23:35:12.445Z,100349.56
2022-09-30T23:38:09.911Z,100348.41
2022-09-30T23:41:08.009Z,100333.53
2022-09-30T23:44:05.811Z,100335.53
2022-09-30T23:47:21.571Z,100329.19
2022-09-30T23:50:18.448Z,100318.75
2022-09-30T23:53:16.029Z,100319.91
2022-09-30T23:56:14.328Z,100326.88
2022-09-30T23:59:14.834Z,100322.03
